Time;durP1;ratioP1;P1;durP2;ratioP2;P2;SDS_P1;SDS_P2;PMS_P1;PMS_P2;Temp;Humidity;BMP_temperature;BMP_pressure;BME280_temperature;BME280_humidity;BME280_pressure;Samples;Min_cycle;Max_cycle;Signal;HPM_P1;HPM_P2
2022/08/14 00:02:16;;;;;;;4.72;3.10;;;;;;;;;;5060556;28;20106;-58
2022/08/14 00:04:42;;;;;;;3.47;2.80;;;;;;;;;;5059477;28;20456;-57
2022/08/14 00:07:08;;;;;;;3.00;2.70;;;;;;;;;;5043600;28;20131;-58
2022/08/14 00:09:34;;;;;;;4.35;2.78;;;;;;;;;;5058745;28;20741;-58
2022/08/14 00:12:00;;;;;;;4.45;2.92;;;;;;;;;;5049206;28;20061;-58
2022/08/14 00:14:27;;;;;;;3.55;3.00;;;;;;;;;;5050382;28;20094;-57
2022/08/14 00:16:53;;;;;;;3.10;2.80;;;;;;;;;;5061631;28;20059;-58
2022/08/14 00:19:19;;;;;;;3.63;2.80;;;;;;;;;;5058844;28;20498;-58
2022/08/14 00:21:44;;;;;;;4.75;3.38;;;;;;;;;;5062700;28;20040;-58
2022/08/14 00:24:10;;;;;;;4.88;2.90;;;;;;;;;;5061519;28;20071;-59
2022/08/14 00:26:35;;;;;;;3.10;2.80;;;;;;;;;;5058165;28;20052;-58
2022/08/14 00:29:01;;;;;;;3.38;2.58;;;;;;;;;;5058995;28;20051;-57
2022/08/14 00:31:27;;;;;;;4.30;2.92;;;;;;;;;;5058219;28;20032;-58
2022/08/14 00:33:53;;;;;;;4.60;2.78;;;;;;;;;;5041189;28;20033;-59
2022/08/14 00:36:23;;;;;;;3.33;3.03;;;;;;;;;;5039354;28;20088;-58
2022/08/14 00:38:48;;;;;;;4.13;2.72;;;;;;;;;;5053366;28;20097;-56
2022/08/14 00:41:14;;;;;;;3.40;3.00;;;;;;;;;;5056232;28;20045;-57
2022/08/14 00:43:39;;;;;;;5.00;3.05;;;;;;;;;;5055535;28;20052;-59
2022/08/14 00:46:07;;;;;;;4.05;3.22;;;;;;;;;;5042227;28;20125;-58
2022/08/14 00:48:34;;;;;;;3.40;3.10;;;;;;;;;;5037593;28;20057;-58
2022/08/14 00:50:59;;;;;;;3.17;2.88;;;;;;;;;;5040815;28;20049;-57
2022/08/14 00:53:25;;;;;;;3.20;2.90;;;;;;;;;;5036729;28;20049;-57
2022/08/14 00:55:54;;;;;;;4.28;2.88;;;;;;;;;;5039905;28;20451;-59
2022/08/14 00:58:29;;;;;;;4.55;2.88;;;;;;;;;;5036980;28;20033;-57
2022/08/14 01:00:56;;;;;;;4.78;3.10;;;;;;;;;;5040901;28;20036;-59
2022/08/14 01:03:23;;;;;;;5.18;2.92;;;;;;;;;;5037355;28;21208;-58
2022/08/14 01:05:51;;;;;;;5.15;3.13;;;;;;;;;;5040219;28;20471;-58
2022/08/14 01:08:19;;;;;;;5.20;3.28;;;;;;;;;;5039934;28;20053;-57
2022/08/14 01:10:50;;;;;;;3.95;3.40;;;;;;;;;;5040042;28;20041;-59
2022/08/14 01:13:28;;;;;;;3.88;3.08;;;;;;;;;;5039276;28;20064;-59
2022/08/14 01:15:56;;;;;;;7.03;4.00;;;;;;;;;;5040879;28;20052;-58
2022/08/14 01:21:14;;;;;;;3.70;3.40;;;;;;;;;;5039280;28;20415;-57
2022/08/14 01:23:46;;;;;;;4.10;3.58;;;;;;;;;;5038403;28;20041;-56
2022/08/14 01:26:14;;;;;;;3.88;3.35;;;;;;;;;;5038548;28;20042;-58
2022/08/14 01:28:40;;;;;;;3.67;3.38;;;;;;;;;;5038055;28;20454;-56
2022/08/14 01:31:13;;;;;;;3.55;3.03;;;;;;;;;;5036663;28;20042;-58
2022/08/14 01:33:43;;;;;;;4.13;3.17;;;;;;;;;;5039016;28;20087;-57
2022/08/14 01:36:10;;;;;;;4.05;3.40;;;;;;;;;;5034484;28;20049;-57
2022/08/14 01:38:37;;;;;;;3.88;3.25;;;;;;;;;;5037411;28;20057;-56
2022/08/14 01:41:11;;;;;;;7.45;3.42;;;;;;;;;;5037707;28;20045;-56
2022/08/14 01:43:48;;;;;;;4.35;3.33;;;;;;;;;;5039801;28;20063;-57
2022/08/14 01:46:16;;;;;;;5.88;3.28;;;;;;;;;;5039234;28;20047;-57
2022/08/14 01:48:43;;;;;;;5.65;3.63;;;;;;;;;;5061159;28;20513;-57
2022/08/14 01:51:11;;;;;;;3.70;3.40;;;;;;;;;;5045293;28;20037;-60
2022/08/14 01:53:39;;;;;;;4.38;3.40;;;;;;;;;;5039536;28;20162;-55
2022/08/14 01:56:05;;;;;;;4.80;3.55;;;;;;;;;;5039973;28;20461;-57
2022/08/14 01:58:31;;;;;;;4.00;3.55;;;;;;;;;;5040652;28;20028;-57
2022/08/14 02:00:57;;;;;;;5.07;3.47;;;;;;;;;;5037640;28;20479;-59
2022/08/14 02:03:34;;;;;;;4.75;4.20;;;;;;;;;;5040219;28;20060;-59
2022/08/14 02:06:01;;;;;;;5.88;4.13;;;;;;;;;;5035263;28;20046;-59
2022/08/14 02:08:29;;;;;;;5.68;4.25;;;;;;;;;;5047353;28;20387;-57
2022/08/14 02:11:15;;;;;;;6.65;3.90;;;;;;;;;;5060417;28;20056;-59
2022/08/14 02:13:42;;;;;;;7.88;4.20;;;;;;;;;;5061313;28;20110;-57
2022/08/14 02:16:09;;;;;;;4.22;3.88;;;;;;;;;;5061657;28;20756;-58
2022/08/14 02:18:35;;;;;;;6.40;4.15;;;;;;;;;;5061298;28;20539;-58
2022/08/14 02:21:02;;;;;;;5.15;4.10;;;;;;;;;;5060488;28;20049;-58
2022/08/14 02:23:28;;;;;;;5.05;4.30;;;;;;;;;;5074348;28;20048;-57
2022/08/14 02:25:54;;;;;;;5.80;4.00;;;;;;;;;;5059536;28;20072;-57
2022/08/14 02:28:19;;;;;;;5.47;4.03;;;;;;;;;;5059366;28;20043;-57
2022/08/14 02:30:44;;;;;;;6.82;4.25;;;;;;;;;;5060294;28;20304;-55
2022/08/14 02:33:10;;;;;;;4.35;3.90;;;;;;;;;;5061508;28;20052;-57
2022/08/14 02:35:39;;;;;;;5.25;3.60;;;;;;;;;;5058923;28;20048;-58
2022/08/14 02:38:05;;;;;;;8.07;3.72;;;;;;;;;;5059599;28;20049;-57
2022/08/14 02:40:31;;;;;;;4.45;3.65;;;;;;;;;;5060871;28;20033;-62
2022/08/14 02:42:57;;;;;;;5.13;3.92;;;;;;;;;;5058723;28;20078;-56
2022/08/14 02:45:23;;;;;;;7.85;4.15;;;;;;;;;;5061201;28;20478;-56
2022/08/14 02:47:49;;;;;;;4.88;3.72;;;;;;;;;;5057667;28;20086;-57
2022/08/14 02:50:15;;;;;;;5.18;4.20;;;;;;;;;;5061877;28;20995;-57
2022/08/14 02:52:41;;;;;;;4.28;3.88;;;;;;;;;;5058629;28;20163;-58
2022/08/14 02:55:06;;;;;;;4.85;4.00;;;;;;;;;;5059355;28;20841;-58
2022/08/14 02:57:32;;;;;;;7.45;4.43;;;;;;;;;;5060901;28;20143;-57
2022/08/14 02:59:58;;;;;;;5.35;4.05;;;;;;;;;;5060846;28;20048;-59
2022/08/14 03:02:23;;;;;;;4.90;4.10;;;;;;;;;;5060171;28;20056;-56
2022/08/14 03:04:49;;;;;;;4.57;4.18;;;;;;;;;;5059281;28;20053;-56
2022/08/14 03:07:15;;;;;;;5.32;4.20;;;;;;;;;;5058026;28;20359;-57
2022/08/14 03:09:41;;;;;;;4.88;4.22;;;;;;;;;;5040517;28;20207;-57
2022/08/14 03:12:07;;;;;;;4.53;4.05;;;;;;;;;;5041029;28;20139;-57
2022/08/14 03:14:38;;;;;;;5.40;4.75;;;;;;;;;;5055363;28;20048;-58
2022/08/14 03:17:05;;;;;;;4.50;4.07;;;;;;;;;;5054961;28;20049;-58
2022/08/14 03:19:30;;;;;;;4.95;4.32;;;;;;;;;;5044331;28;20029;-57
2022/08/14 03:21:56;;;;;;;4.85;4.35;;;;;;;;;;5041871;28;20041;-57
2022/08/14 03:24:21;;;;;;;4.55;4.15;;;;;;;;;;5060411;28;20032;-54
2022/08/14 03:26:48;;;;;;;12.68;4.22;;;;;;;;;;5058663;28;20136;-57
2022/08/14 03:29:19;;;;;;;5.35;4.22;;;;;;;;;;5051675;28;20041;-57
2022/08/14 03:31:48;;;;;;;5.07;4.13;;;;;;;;;;5039195;28;20107;-56
2022/08/14 03:34:13;;;;;;;9.27;4.57;;;;;;;;;;5038712;28;20033;-57
2022/08/14 03:36:39;;;;;;;5.50;4.60;;;;;;;;;;5064001;28;20051;-57
2022/08/14 03:39:06;;;;;;;6.00;4.40;;;;;;;;;;5059112;28;20053;-58
2022/08/14 03:41:32;;;;;;;5.30;4.70;;;;;;;;;;5064829;28;20135;-57
2022/08/14 03:44:00;;;;;;;4.93;4.38;;;;;;;;;;5060865;28;20139;-58
2022/08/14 03:46:28;;;;;;;4.75;4.35;;;;;;;;;;5063239;28;20029;-58
2022/08/14 03:48:55;;;;;;;5.35;4.57;;;;;;;;;;5065025;28;20025;-58
2022/08/14 03:51:27;;;;;;;5.25;4.57;;;;;;;;;;5040321;28;20668;-58
2022/08/14 03:53:54;;;;;;;6.50;4.70;;;;;;;;;;5040087;28;20178;-58
2022/08/14 03:56:20;;;;;;;6.38;4.60;;;;;;;;;;5048289;28;20048;-57
2022/08/14 03:58:49;;;;;;;5.45;4.32;;;;;;;;;;5060237;28;20052;-56
2022/08/14 04:01:18;;;;;;;5.40;4.85;;;;;;;;;;5062589;28;20032;-58
2022/08/14 04:03:44;;;;;;;5.00;4.50;;;;;;;;;;5062919;28;20052;-58
2022/08/14 04:06:10;;;;;;;9.30;5.25;;;;;;;;;;5059361;28;20163;-57
2022/08/14 04:08:37;;;;;;;5.88;4.90;;;;;;;;;;5064197;28;20471;-57
2022/08/14 04:11:04;;;;;;;5.35;4.50;;;;;;;;;;5061479;28;20048;-56
2022/08/14 04:13:35;;;;;;;5.35;4.80;;;;;;;;;;5063867;28;20048;-57
2022/08/14 04:16:06;;;;;;;6.60;4.43;;;;;;;;;;5061028;28;20040;-58
2022/08/14 04:18:32;;;;;;;5.00;4.50;;;;;;;;;;5061746;28;20525;-57
2022/08/14 04:20:58;;;;;;;7.25;4.72;;;;;;;;;;5061137;28;20074;-58
2022/08/14 04:23:24;;;;;;;5.97;4.72;;;;;;;;;;5063380;28;20491;-57
2022/08/14 04:25:53;;;;;;;5.35;4.85;;;;;;;;;;5059217;28;20823;-60
2022/08/14 04:28:19;;;;;;;5.57;4.78;;;;;;;;;;5061504;28;20185;-57
2022/08/14 04:30:44;;;;;;;5.63;5.13;;;;;;;;;;5062992;28;20037;-57
2022/08/14 04:33:10;;;;;;;11.05;5.28;;;;;;;;;;5062993;28;20503;-57
2022/08/14 04:35:37;;;;;;;5.88;4.65;;;;;;;;;;5058971;28;20102;-57
2022/08/14 04:43:41;;;;;;;6.88;4.82;;;;;;;;;;5063973;28;20051;-58
2022/08/14 04:46:09;;;;;;;6.18;5.28;;;;;;;;;;5060010;28;20044;-57
2022/08/14 04:48:35;;;;;;;6.22;4.85;;;;;;;;;;5061890;28;20048;-57
2022/08/14 04:51:03;;;;;;;6.45;5.05;;;;;;;;;;5062707;28;20094;-56
2022/08/14 04:53:30;;;;;;;6.88;5.13;;;;;;;;;;5059484;28;20049;-57
2022/08/14 04:55:56;;;;;;;5.50;4.93;;;;;;;;;;5062723;28;20751;-56
2022/08/14 04:58:25;;;;;;;6.43;4.90;;;;;;;;;;5057926;28;20667;-57
2022/08/14 05:00:51;;;;;;;8.70;5.70;;;;;;;;;;5038223;28;20083;-57
2022/08/14 05:03:20;;;;;;;7.15;5.50;;;;;;;;;;5055734;28;20041;-57
2022/08/14 05:05:51;;;;;;;7.00;5.78;;;;;;;;;;5061510;28;20055;-57
2022/08/14 05:08:17;;;;;;;6.88;6.18;;;;;;;;;;5059588;28;20506;-55
2022/08/14 05:10:50;;;;;;;5.90;5.30;;;;;;;;;;5054633;28;20479;-55
2022/08/14 05:13:16;;;;;;;;;;;;;;;;;;5042493;28;20128;-54
2022/08/14 05:15:43;;;;;;;6.07;5.43;;;;;;;;;;5063219;28;20011;-55
2022/08/14 05:18:18;;;;;;;6.88;5.10;;;;;;;;;;5057635;28;20995;-57
2022/08/14 05:20:49;;;;;;;6.40;5.60;;;;;;;;;;5045453;28;20049;-57
2022/08/14 05:23:21;;;;;;;7.50;5.47;;;;;;;;;;5039650;28;20045;-57
2022/08/14 05:25:50;;;;;;;7.38;5.60;;;;;;;;;;5043707;28;20352;-56
2022/08/14 05:28:19;;;;;;;7.10;5.32;;;;;;;;;;5058221;28;20028;-57
2022/08/14 05:30:50;;;;;;;11.10;6.05;;;;;;;;;;5058343;28;20190;-55
2022/08/14 05:33:17;;;;;;;5.78;5.18;;;;;;;;;;5059775;28;20373;-57
2022/08/14 05:35:44;;;;;;;6.65;5.53;;;;;;;;;;5045277;28;20057;-55
2022/08/14 05:38:13;;;;;;;6.68;5.50;;;;;;;;;;5045005;28;20045;-56
2022/08/14 05:40:39;;;;;;;7.18;6.03;;;;;;;;;;5060116;28;20068;-56
2022/08/14 05:43:06;;;;;;;6.82;5.85;;;;;;;;;;5058235;28;20520;-57
2022/08/14 05:45:34;;;;;;;8.77;5.78;;;;;;;;;;5039713;28;20942;-57
2022/08/14 05:48:00;;;;;;;13.75;5.90;;;;;;;;;;5040031;28;20057;-55
2022/08/14 05:50:26;;;;;;;7.10;5.28;;;;;;;;;;5039523;28;20291;-58
2022/08/14 05:55:26;;;;;;;6.65;5.90;;;;;;;;;;5016715;28;20648;-70
2022/08/14 05:57:55;;;;;;;6.03;5.43;;;;;;;;;;5018962;28;20021;-68
2022/08/14 06:00:29;;;;;;;6.25;5.50;;;;;;;;;;5018366;28;20060;-70
2022/08/14 06:02:56;;;;;;;5.93;5.32;;;;;;;;;;5020907;28;20033;-70
2022/08/14 06:05:22;;;;;;;5.72;5.20;;;;;;;;;;5019772;28;20708;-70
2022/08/14 06:07:48;;;;;;;7.07;5.18;;;;;;;;;;5023179;28;22254;-70
2022/08/14 06:10:13;;;;;;;6.13;5.55;;;;;;;;;;5020717;28;20039;-70
2022/08/14 06:12:39;;;;;;;6.30;5.70;;;;;;;;;;5020901;28;20126;-71
2022/08/14 06:15:06;;;;;;;6.20;5.32;;;;;;;;;;5022651;28;20919;-73
2022/08/14 06:17:31;;;;;;;6.20;5.50;;;;;;;;;;5018242;28;20401;-71
2022/08/14 06:19:57;;;;;;;7.13;6.00;;;;;;;;;;5022925;28;20067;-69
2022/08/14 06:22:22;;;;;;;5.75;5.13;;;;;;;;;;5018613;28;20033;-70
2022/08/14 06:24:47;;;;;;;7.50;5.20;;;;;;;;;;5018455;28;20029;-70
2022/08/14 06:27:13;;;;;;;8.60;5.35;;;;;;;;;;5021921;28;20049;-69
2022/08/14 06:29:38;;;;;;;7.57;5.68;;;;;;;;;;5018782;28;20041;-69
2022/08/14 06:32:04;;;;;;;5.63;5.10;;;;;;;;;;5025020;28;20072;-71
2022/08/14 06:34:30;;;;;;;6.70;5.15;;;;;;;;;;5021264;28;20029;-69
2022/08/14 06:36:55;;;;;;;6.32;5.60;;;;;;;;;;5021500;28;20503;-68
2022/08/14 06:39:22;;;;;;;8.00;5.80;;;;;;;;;;5019793;28;20049;-71
2022/08/14 06:41:48;;;;;;;15.77;6.45;;;;;;;;;;5018698;28;20124;-71
2022/08/14 06:44:13;;;;;;;7.60;5.10;;;;;;;;;;5019047;28;20113;-70
2022/08/14 06:46:39;;;;;;;6.55;5.10;;;;;;;;;;5021142;28;20041;-70
2022/08/14 06:49:05;;;;;;;11.45;6.25;;;;;;;;;;5020283;28;20622;-71
2022/08/14 06:51:30;;;;;;;7.28;5.30;;;;;;;;;;5020991;28;20059;-71
2022/08/14 06:53:56;;;;;;;6.45;5.30;;;;;;;;;;5002956;28;20042;-70
2022/08/14 06:56:22;;;;;;;6.22;5.47;;;;;;;;;;5004108;28;20042;-69
2022/08/14 06:58:48;;;;;;;6.68;5.60;;;;;;;;;;5006338;28;20088;-72
2022/08/14 07:06:42;;;;;;;6.20;5.60;;;;;;;;;;5007395;28;20049;-70
2022/08/14 07:09:09;;;;;;;5.78;5.18;;;;;;;;;;5004418;28;20369;-70
2022/08/14 07:11:35;;;;;;;6.85;5.35;;;;;;;;;;5004344;28;20095;-71
2022/08/14 07:14:00;;;;;;;6.32;5.13;;;;;;;;;;5005901;28;20042;-70
2022/08/14 07:16:25;;;;;;;5.82;5.22;;;;;;;;;;5003173;28;20029;-69
2022/08/14 07:18:51;;;;;;;6.13;5.53;;;;;;;;;;5006164;28;20125;-70
2022/08/14 07:21:16;;;;;;;6.38;5.13;;;;;;;;;;5005376;28;20046;-69
2022/08/14 07:23:42;;;;;;;7.18;5.25;;;;;;;;;;5001549;28;20042;-70
2022/08/14 07:26:08;;;;;;;6.75;5.00;;;;;;;;;;5007574;28;20038;-68
2022/08/14 07:28:37;;;;;;;6.28;4.95;;;;;;;;;;5004983;28;20030;-68
2022/08/14 07:31:05;;;;;;;5.47;4.97;;;;;;;;;;5008353;28;20068;-69
2022/08/14 07:33:52;;;;;;;7.15;5.15;;;;;;;;;;5004778;28;20095;-69
2022/08/14 07:36:20;;;;;;;5.63;5.13;;;;;;;;;;5003788;28;20493;-68
2022/08/14 07:38:45;;;;;;;7.20;5.60;;;;;;;;;;5006008;28;20073;-67
2022/08/14 07:41:12;;;;;;;5.50;4.88;;;;;;;;;;5004850;28;20076;-71
2022/08/14 07:43:38;;;;;;;8.07;5.28;;;;;;;;;;5004109;28;20046;-70
2022/08/14 07:46:04;;;;;;;7.55;5.22;;;;;;;;;;5004710;28;20034;-69
2022/08/14 07:48:30;;;;;;;6.38;4.82;;;;;;;;;;5001979;28;20101;-70
2022/08/14 07:50:55;;;;;;;7.05;5.70;;;;;;;;;;5001895;28;20161;-68
2022/08/14 07:53:21;;;;;;;6.32;5.00;;;;;;;;;;5002924;28;20136;-69
2022/08/14 07:55:48;;;;;;;6.55;5.05;;;;;;;;;;5004585;28;20045;-68
2022/08/14 07:58:14;;;;;;;5.30;4.75;;;;;;;;;;5003232;28;20048;-68
2022/08/14 08:00:41;;;;;;;5.70;5.03;;;;;;;;;;5007237;28;20052;-70
2022/08/14 08:03:10;;;;;;;7.55;4.90;;;;;;;;;;5007078;28;20049;-68
2022/08/14 08:05:40;;;;;;;6.15;4.80;;;;;;;;;;5008494;28;20168;-69
2022/08/14 08:08:07;;;;;;;5.72;5.22;;;;;;;;;;5006396;28;20038;-68
2022/08/14 08:10:33;;;;;;;7.10;4.97;;;;;;;;;;5005563;28;20021;-68
2022/08/14 08:13:03;;;;;;;5.93;5.03;;;;;;;;;;5008054;28;20036;-68
2022/08/14 08:15:32;;;;;;;5.40;4.57;;;;;;;;;;5008860;28;20048;-67
2022/08/14 08:18:02;;;;;;;7.45;4.70;;;;;;;;;;5009248;28;20050;-70
2022/08/14 08:20:28;;;;;;;9.23;5.10;;;;;;;;;;5004051;28;21313;-68
2022/08/14 08:22:57;;;;;;;5.30;4.80;;;;;;;;;;5008876;28;20030;-67
2022/08/14 08:25:29;;;;;;;5.32;4.85;;;;;;;;;;5003998;28;20030;-67
2022/08/14 08:28:05;;;;;;;5.68;5.18;;;;;;;;;;5008002;28;20030;-68
2022/08/14 08:30:32;;;;;;;5.28;4.78;;;;;;;;;;5006836;28;20049;-67
2022/08/14 08:33:02;;;;;;;5.63;4.60;;;;;;;;;;5007642;28;20048;-68
2022/08/14 08:35:33;;;;;;;7.95;4.57;;;;;;;;;;5005709;28;20046;-68
2022/08/14 08:38:04;;;;;;;8.23;4.97;;;;;;;;;;5006561;28;20420;-68
2022/08/14 08:40:35;;;;;;;5.05;4.63;;;;;;;;;;5007839;28;20025;-68
2022/08/14 08:43:05;;;;;;;8.73;4.47;;;;;;;;;;5006775;28;20037;-69
2022/08/14 08:45:32;;;;;;;5.07;4.57;;;;;;;;;;5004651;28;20084;-69
2022/08/14 08:47:57;;;;;;;7.95;4.95;;;;;;;;;;5004932;28;20085;-70
2022/08/14 08:50:32;;;;;;;5.38;4.88;;;;;;;;;;5004232;28;20501;-67
2022/08/14 08:53:08;;;;;;;7.18;4.63;;;;;;;;;;5006899;28;20471;-69
2022/08/14 08:55:39;;;;;;;7.53;5.05;;;;;;;;;;5006241;28;20033;-69
2022/08/14 08:58:07;;;;;;;6.25;4.70;;;;;;;;;;5005495;28;20034;-69
2022/08/14 09:00:34;;;;;;;6.68;5.00;;;;;;;;;;5003814;28;20505;-69
2022/08/14 09:03:09;;;;;;;5.20;4.70;;;;;;;;;;5003726;28;20044;-69
2022/08/14 09:05:37;;;;;;;5.30;4.38;;;;;;;;;;5004929;28;20053;-69
2022/08/14 09:08:33;;;;;;;5.20;4.57;;;;;;;;;;5004486;28;20045;-69
2022/08/14 09:11:10;;;;;;;8.38;4.53;;;;;;;;;;4992292;28;20056;-69
2022/08/14 09:13:36;;;;;;;6.20;4.20;;;;;;;;;;5004242;28;20057;-69
2022/08/14 09:16:01;;;;;;;6.85;4.70;;;;;;;;;;5006495;28;20463;-67
2022/08/14 09:18:27;;;;;;;6.03;4.32;;;;;;;;;;5004420;28;20582;-68
2022/08/14 09:20:54;;;;;;;9.25;4.43;;;;;;;;;;5006344;28;20041;-68
2022/08/14 09:23:21;;;;;;;5.70;4.65;;;;;;;;;;5004614;28;20038;-67
2022/08/14 09:25:48;;;;;;;6.88;4.50;;;;;;;;;;5004437;28;20033;-68
2022/08/14 09:28:15;;;;;;;5.07;4.40;;;;;;;;;;5004382;28;20089;-68
2022/08/14 09:30:53;;;;;;;4.90;4.30;;;;;;;;;;5005164;28;20046;-68
2022/08/14 09:33:57;;;;;;;7.80;4.95;;;;;;;;;;5004680;28;20401;-67
2022/08/14 09:36:50;;;;;;;5.97;4.20;;;;;;;;;;5005427;28;20157;-67
2022/08/14 09:39:57;;;;;;;5.40;4.55;;;;;;;;;;5006410;28;20038;-69
2022/08/14 09:42:51;;;;;;;5.50;4.32;;;;;;;;;;5005097;28;20034;-67
2022/08/14 09:45:31;;;;;;;6.25;4.70;;;;;;;;;;5005057;28;20034;-68
2022/08/14 09:47:57;;;;;;;5.47;4.78;;;;;;;;;;5005703;28;20029;-68
2022/08/14 09:50:29;;;;;;;4.70;4.30;;;;;;;;;;5004895;28;20066;-67
2022/08/14 09:53:05;;;;;;;7.10;4.40;;;;;;;;;;5006950;28;20042;-69
2022/08/14 09:55:34;;;;;;;6.03;3.88;;;;;;;;;;5003643;28;20480;-69
2022/08/14 09:58:19;;;;;;;4.60;4.20;;;;;;;;;;5005963;28;20045;-69
2022/08/14 10:00:53;;;;;;;7.50;4.32;;;;;;;;;;5004865;28;20041;-70
2022/08/14 10:03:29;;;;;;;5.47;4.40;;;;;;;;;;5003666;28;20770;-69
2022/08/14 10:06:10;;;;;;;5.05;4.55;;;;;;;;;;5002546;28;20030;-71
2022/08/14 10:08:44;;;;;;;4.82;4.35;;;;;;;;;;5002662;28;20049;-70
2022/08/14 10:11:18;;;;;;;5.15;4.30;;;;;;;;;;5003570;28;20038;-69
2022/08/14 10:13:46;;;;;;;5.90;4.70;;;;;;;;;;5004988;28;20065;-72
2022/08/14 10:16:13;;;;;;;4.72;4.30;;;;;;;;;;5005190;28;20065;-68
2022/08/14 10:18:39;;;;;;;4.88;4.40;;;;;;;;;;5003368;28;20038;-69
2022/08/14 10:21:09;;;;;;;4.65;4.22;;;;;;;;;;5003947;28;20049;-71
2022/08/14 10:23:48;;;;;;;6.18;3.70;;;;;;;;;;5003377;28;20392;-70
2022/08/14 10:26:17;;;;;;;4.30;3.70;;;;;;;;;;5003314;28;20545;-68
2022/08/14 10:28:46;;;;;;;4.10;3.70;;;;;;;;;;5004132;28;21132;-69
2022/08/14 10:31:33;;;;;;;7.72;3.33;;;;;;;;;;5003264;28;20034;-68
2022/08/14 10:34:05;;;;;;;4.68;3.80;;;;;;;;;;5003341;28;20053;-70
2022/08/14 10:36:36;;;;;;;6.28;4.30;;;;;;;;;;5002934;28;20076;-68
2022/08/14 10:39:24;;;;;;;4.72;3.80;;;;;;;;;;5006572;28;20044;-68
2022/08/14 10:42:04;;;;;;;7.03;3.90;;;;;;;;;;5003358;28;20497;-72
2022/08/14 10:44:39;;;;;;;4.90;4.03;;;;;;;;;;5002736;28;20122;-68
2022/08/14 10:47:09;;;;;;;3.95;3.60;;;;;;;;;;5002873;28;20089;-68
2022/08/14 10:49:37;;;;;;;5.50;3.80;;;;;;;;;;5003590;28;20096;-68
2022/08/14 10:52:05;;;;;;;5.45;4.18;;;;;;;;;;5005447;28;20026;-69
2022/08/14 10:54:42;;;;;;;5.90;3.92;;;;;;;;;;5001859;28;20044;-68
2022/08/14 10:57:11;;;;;;;3.83;3.53;;;;;;;;;;5005402;28;20502;-69
2022/08/14 10:59:55;;;;;;;4.03;3.65;;;;;;;;;;5002891;28;20087;-70
2022/08/14 11:02:29;;;;;;;3.90;3.55;;;;;;;;;;5001829;28;20050;-68
2022/08/14 11:05:13;;;;;;;3.95;3.65;;;;;;;;;;5002122;28;20857;-68
2022/08/14 11:07:55;;;;;;;3.95;3.55;;;;;;;;;;5003088;28;20050;-69
2022/08/14 11:10:23;;;;;;;3.53;3.22;;;;;;;;;;5004397;28;20022;-68
2022/08/14 11:12:52;;;;;;;3.75;3.45;;;;;;;;;;5002505;28;20053;-69
2022/08/14 11:15:21;;;;;;;5.10;3.75;;;;;;;;;;5003784;28;20056;-68
2022/08/14 11:17:48;;;;;;;3.80;3.50;;;;;;;;;;5000826;28;20397;-69
2022/08/14 11:20:16;;;;;;;3.90;3.50;;;;;;;;;;5002638;28;20038;-68
2022/08/14 11:22:41;;;;;;;4.40;3.58;;;;;;;;;;5001969;28;20049;-68
2022/08/14 11:25:10;;;;;;;5.22;3.97;;;;;;;;;;5000098;28;20038;-69
2022/08/14 11:27:37;;;;;;;4.75;3.40;;;;;;;;;;5001877;28;20148;-69
2022/08/14 11:30:09;;;;;;;3.83;3.45;;;;;;;;;;5002668;28;20377;-69
2022/08/14 11:32:35;;;;;;;5.00;3.50;;;;;;;;;;5004073;28;20034;-68
2022/08/14 11:35:02;;;;;;;4.95;2.78;;;;;;;;;;5005105;28;20405;-68
2022/08/14 11:37:28;;;;;;;5.70;2.83;;;;;;;;;;5005867;28;20026;-69
2022/08/14 11:39:54;;;;;;;3.63;2.88;;;;;;;;;;5010119;28;20025;-70
2022/08/14 11:42:24;;;;;;;4.90;3.33;;;;;;;;;;5001347;28;20071;-69
2022/08/14 11:45:04;;;;;;;3.00;2.80;;;;;;;;;;5006371;28;20093;-70
2022/08/14 11:47:32;;;;;;;2.97;2.65;;;;;;;;;;5005925;28;20041;-69
2022/08/14 11:49:58;;;;;;;5.90;3.08;;;;;;;;;;5008338;28;20064;-71
2022/08/14 11:52:33;;;;;;;5.07;3.25;;;;;;;;;;5006195;28;20030;-68
2022/08/14 11:54:59;;;;;;;3.63;3.33;;;;;;;;;;5004489;28;20080;-69
2022/08/14 11:57:25;;;;;;;5.25;3.35;;;;;;;;;;5005173;28;20477;-69
2022/08/14 12:00:00;;;;;;;3.70;3.17;;;;;;;;;;5007104;28;20042;-70
2022/08/14 12:02:25;;;;;;;3.10;2.90;;;;;;;;;;5007917;28;20557;-72
2022/08/14 12:04:52;;;;;;;4.13;3.10;;;;;;;;;;5005667;28;20132;-68
2022/08/14 12:07:18;;;;;;;3.97;2.90;;;;;;;;;;5007801;28;20034;-68
2022/08/14 12:09:45;;;;;;;3.85;3.30;;;;;;;;;;5007435;28;20048;-69
2022/08/14 12:12:14;;;;;;;3.50;3.20;;;;;;;;;;5006963;28;20698;-69
2022/08/14 12:14:58;;;;;;;5.20;3.40;;;;;;;;;;5008121;28;20061;-71
2022/08/14 12:17:26;;;;;;;3.63;3.33;;;;;;;;;;5006221;28;20042;-68
2022/08/14 12:19:59;;;;;;;4.45;3.60;;;;;;;;;;5005067;28;20732;-68
2022/08/14 12:22:39;;;;;;;4.15;3.20;;;;;;;;;;5007335;28;20510;-68
2022/08/14 12:25:07;;;;;;;3.50;3.20;;;;;;;;;;5005865;28;20034;-69
2022/08/14 12:27:48;;;;;;;11.00;3.92;;;;;;;;;;5008900;28;20029;-69
2022/08/14 12:30:54;;;;;;;7.47;3.93;;;;;;;;;;5007206;28;20026;-70
2022/08/14 12:33:31;;;;;;;5.97;3.28;;;;;;;;;;5004406;28;20453;-70
2022/08/14 12:35:59;;;;;;;4.72;3.70;;;;;;;;;;5005136;28;20030;-69
2022/08/14 12:38:42;;;;;;;5.25;3.42;;;;;;;;;;5005408;28;20058;-69
2022/08/14 12:41:10;;;;;;;5.70;3.42;;;;;;;;;;5003525;28;20423;-67
2022/08/14 12:43:47;;;;;;;5.05;3.60;;;;;;;;;;5006407;28;20061;-69
2022/08/14 12:46:29;;;;;;;4.68;3.60;;;;;;;;;;5005999;28;20030;-69
2022/08/14 12:48:59;;;;;;;9.98;3.67;;;;;;;;;;5006683;28;20080;-71
2022/08/14 12:51:27;;;;;;;6.28;3.72;;;;;;;;;;5008724;28;20112;-68
2022/08/14 12:53:54;;;;;;;5.40;3.70;;;;;;;;;;5008679;28;20389;-71
2022/08/14 12:56:23;;;;;;;7.32;3.78;;;;;;;;;;5008543;28;20072;-69
2022/08/14 12:58:51;;;;;;;5.75;4.20;;;;;;;;;;5005326;28;20084;-70
2022/08/14 13:01:18;;;;;;;9.32;4.28;;;;;;;;;;5006963;28;20073;-68
2022/08/14 13:03:44;;;;;;;4.45;4.00;;;;;;;;;;5009731;28;20116;-69
2022/08/14 13:06:10;;;;;;;5.70;4.03;;;;;;;;;;5008533;28;20100;-70
2022/08/14 13:08:36;;;;;;;5.82;3.90;;;;;;;;;;5008696;28;20030;-68
2022/08/14 13:11:05;;;;;;;5.30;3.50;;;;;;;;;;5009740;28;20435;-69
2022/08/14 13:13:33;;;;;;;5.47;3.97;;;;;;;;;;5008424;28;20125;-69
2022/08/14 13:15:59;;;;;;;5.32;4.00;;;;;;;;;;5008177;28;20028;-67
2022/08/14 13:18:26;;;;;;;4.85;4.13;;;;;;;;;;5008600;28;20399;-70
2022/08/14 13:20:53;;;;;;;6.32;4.47;;;;;;;;;;5006130;28;20029;-70
2022/08/14 13:23:18;;;;;;;8.65;4.13;;;;;;;;;;5007356;28;20041;-71
2022/08/14 13:25:49;;;;;;;4.88;3.95;;;;;;;;;;5007049;28;20025;-69
2022/08/14 13:28:15;;;;;;;7.03;3.70;;;;;;;;;;5005516;28;20030;-70
2022/08/14 13:30:44;;;;;;;5.70;3.70;;;;;;;;;;5007884;28;20041;-69
2022/08/14 13:33:09;;;;;;;4.90;3.65;;;;;;;;;;5007698;28;20044;-71
2022/08/14 13:35:36;;;;;;;4.53;3.17;;;;;;;;;;5009623;28;20017;-69
2022/08/14 13:38:02;;;;;;;3.47;3.17;;;;;;;;;;5005996;28;20129;-69
2022/08/14 13:40:28;;;;;;;5.45;2.83;;;;;;;;;;5004948;28;20830;-69
2022/08/14 13:42:54;;;;;;;3.13;2.72;;;;;;;;;;5006591;28;20026;-68
2022/08/14 13:45:22;;;;;;;3.97;2.78;;;;;;;;;;5006564;28;20034;-69
2022/08/14 13:47:47;;;;;;;5.28;2.97;;;;;;;;;;5007741;28;20025;-69
2022/08/14 13:50:15;;;;;;;3.78;2.83;;;;;;;;;;5006501;28;20034;-68
2022/08/14 13:52:52;;;;;;;4.32;3.38;;;;;;;;;;5007942;28;20508;-69
2022/08/14 13:55:19;;;;;;;3.85;3.00;;;;;;;;;;5005853;28;20029;-69
2022/08/14 13:57:46;;;;;;;4.65;2.97;;;;;;;;;;5006785;28;20030;-69
2022/08/14 14:00:14;;;;;;;4.57;3.10;;;;;;;;;;5003305;28;20095;-68
2022/08/14 14:02:41;;;;;;;3.50;3.17;;;;;;;;;;5002185;28;20049;-68
2022/08/14 14:05:08;;;;;;;4.97;3.05;;;;;;;;;;4998038;28;20041;-68
2022/08/14 14:07:35;;;;;;;4.13;3.15;;;;;;;;;;5005352;28;20034;-70
2022/08/14 14:10:05;;;;;;;4.45;3.42;;;;;;;;;;5000922;28;20041;-67
2022/08/14 14:12:36;;;;;;;3.08;2.85;;;;;;;;;;5003851;28;20038;-67
2022/08/14 14:15:05;;;;;;;2.85;2.60;;;;;;;;;;5001031;28;20061;-69
2022/08/14 14:17:31;;;;;;;4.13;2.97;;;;;;;;;;5005002;28;20029;-67
2022/08/14 14:19:57;;;;;;;3.72;3.03;;;;;;;;;;5004868;28;20436;-67
2022/08/14 14:22:25;;;;;;;4.38;2.88;;;;;;;;;;5002322;28;20037;-71
2022/08/14 14:24:51;;;;;;;6.03;2.63;;;;;;;;;;5004401;28;20798;-67
2022/08/14 14:27:18;;;;;;;3.70;3.10;;;;;;;;;;4999985;28;20104;-69
2022/08/14 14:29:47;;;;;;;3.47;3.17;;;;;;;;;;5003484;28;20069;-68
2022/08/14 14:32:15;;;;;;;3.22;3.03;;;;;;;;;;5002810;28;20116;-68
2022/08/14 14:34:41;;;;;;;5.68;2.97;;;;;;;;;;5005008;28;20034;-68
2022/08/14 14:37:13;;;;;;;2.95;2.75;;;;;;;;;;5005029;28;20041;-69
2022/08/14 14:39:38;;;;;;;;;;;;;;;;;;5003699;28;20085;-68
2022/08/14 14:42:07;;;;;;;6.18;3.25;;;;;;;;;;5003734;28;19933;-69
2022/08/14 14:44:39;;;;;;;5.82;2.88;;;;;;;;;;5002184;28;20073;-68
2022/08/14 14:47:07;;;;;;;3.47;3.00;;;;;;;;;;5003963;28;20484;-68
2022/08/14 14:49:32;;;;;;;3.83;3.38;;;;;;;;;;5001654;28;20736;-72
2022/08/14 14:51:57;;;;;;;5.47;3.10;;;;;;;;;;5004731;28;20116;-68
2022/08/14 14:54:23;;;;;;;4.60;2.92;;;;;;;;;;5002814;28;20092;-69
2022/08/14 14:56:51;;;;;;;4.20;2.92;;;;;;;;;;5001013;28;20040;-68
2022/08/14 14:59:18;;;;;;;4.07;2.78;;;;;;;;;;5004471;28;20038;-68
2022/08/14 15:01:48;;;;;;;3.50;3.00;;;;;;;;;;4998786;28;20489;-67
2022/08/14 15:04:14;;;;;;;2.90;2.67;;;;;;;;;;5007574;28;20034;-67
2022/08/14 15:06:40;;;;;;;4.25;2.70;;;;;;;;;;4999707;28;20176;-67
2022/08/14 15:09:07;;;;;;;4.07;2.65;;;;;;;;;;5004203;28;20151;-70
2022/08/14 15:11:33;;;;;;;3.65;2.42;;;;;;;;;;5003891;28;20037;-68